This is the latest recevied weather packets stored in our database for station/object SQ6IUS-13. If no packets are shown the sender has not sent any weather packets the latest 10 day(s).
| Time | Temp. | Humidity | Pressure | Rain* | Wind** | Luminosity | Snow |
|---|---|---|---|---|---|---|---|
| 1777717672 | 33.33° C | 20% | 1024.1 hPa | - | - | - | - |
| 1777716776 | 33.89° C | 20% | 1024.2 hPa | - | - | - | - |
| 1777715874 | 29.44° C | 24% | 1024.3 hPa | - | - | - | - |
| 1777714974 | 27.22° C | 25% | 1024.6 hPa | - | - | - | - |
| 1777714075 | 27.78° C | 24% | 1024.7 hPa | - | - | - | - |
| 1777713175 | 27.22° C | 26% | 1024.9 hPa | - | - | - | - |
| 1777712277 | 28.33° C | 25% | 1024.9 hPa | - | - | - | - |
| 1777711378 | 26.11° C | 29% | 1025 hPa | - | - | - | - |
| 1777710479 | 25.56° C | 33% | 1025 hPa | - | - | - | - |
| 1777709581 | 21.11° C | 42% | 1025.2 hPa | - | - | - | - |
| 1777706883 | 20.56° C | 50% | 1025.4 hPa | - | - | - | - |
| 1777705084 | 13.89° C | 100% | 1025.6 hPa | - | - | - | - |
| 1777704189 | 13.33° C | 100% | 1025.6 hPa | - | - | - | - |
| 1777703287 | 12.22° C | 100% | 1025.8 hPa | - | - | - | - |
| 1777701501 | 10° C | 100% | 1025.9 hPa | - | - | - | - |
| 1777701488 | 10° C | 100% | 1025.9 hPa | - | - | - | - |
| 1777699701 | 7.78° C | 100% | 1025.9 hPa | - | - | - | - |
| 1777699688 | 7.78° C | 100% | 1025.9 hPa | - | - | - | - |
| 1777698801 | 6.11° C | 100% | 1025.9 hPa | - | - | - | - |
| 1777698788 | 6.11° C | 100% | 1025.9 hPa | - | - | - | - |
| 1777697901 | 5° C | 100% | 1026 hPa | - | - | - | - |
| 1777697888 | 5° C | 100% | 1026 hPa | - | - | - | - |
| 1777696988 | 3.89° C | 100% | 1025.8 hPa | - | - | - | - |
| 1777696092 | 2.78° C | 100% | 1026 hPa | - | - | - | - |
| 1777695200 | 2.22° C | 100% | 1025.9 hPa | - | - | - | - |
* Rain since midnight (hover to see other rain measurements)
** Current wind speed in m/s (hover to see current wind gust speed)